createdAt,value
2023-03-21T00:00:04.435Z,9.00
2023-03-21T00:01:04.391Z,8.80
2023-03-21T00:02:04.466Z,9.20
2023-03-21T00:03:04.371Z,8.20
2023-03-21T00:04:04.439Z,9.50
2023-03-21T00:05:15.129Z,8.50
2023-03-21T00:06:04.368Z,8.50
2023-03-21T00:07:04.333Z,8.90
2023-03-21T00:08:04.353Z,9.30
2023-03-21T00:09:04.308Z,9.10
2023-03-21T00:10:14.351Z,8.90
2023-03-21T00:11:04.319Z,9.40
2023-03-21T00:12:04.290Z,8.90
2023-03-21T00:13:04.256Z,9.10
2023-03-21T00:14:04.268Z,9.30
2023-03-21T00:15:04.239Z,9.20
2023-03-21T00:16:08.916Z,9.00
2023-03-21T00:17:04.273Z,9.60
2023-03-21T00:18:04.235Z,9.00
2023-03-21T00:19:04.192Z,10.10
2023-03-21T00:20:04.205Z,9.60
2023-03-21T00:21:35.649Z,9.40
2023-03-21T00:22:08.153Z,9.40
2023-03-21T00:23:04.192Z,9.30
2023-03-21T00:24:04.171Z,9.20
2023-03-21T00:25:04.143Z,9.50
2023-03-21T00:26:04.155Z,9.30
2023-03-21T00:27:26.950Z,9.40
2023-03-21T00:28:08.466Z,9.40
2023-03-21T00:29:04.104Z,9.50
2023-03-21T00:30:04.106Z,9.60
2023-03-21T00:31:04.090Z,9.00
2023-03-21T00:32:04.080Z,9.10
2023-03-21T00:33:15.840Z,9.30
2023-03-21T00:34:04.077Z,9.20
2023-03-21T00:35:26.119Z,9.60
2023-03-21T00:36:05.765Z,9.30
2023-03-21T00:37:03.998Z,9.00
2023-03-21T00:38:04.012Z,9.20
2023-03-21T00:39:03.979Z,9.90
2023-03-21T00:40:04.269Z,9.50
2023-03-21T00:41:11.034Z,9.30
2023-03-21T00:42:03.972Z,9.50
2023-03-21T00:43:03.953Z,9.30
2023-03-21T00:44:03.968Z,9.10
2023-03-21T00:45:03.958Z,9.20
2023-03-21T00:46:03.926Z,10.00
2023-03-21T00:47:07.656Z,8.50
2023-03-21T00:48:04.072Z,9.70
2023-03-21T00:49:03.874Z,10.00
2023-03-21T00:50:03.895Z,9.60
2023-03-21T00:51:03.860Z,8.60
2023-03-21T00:52:30.516Z,9.30
2023-03-21T00:53:03.871Z,9.80
2023-03-21T00:54:03.843Z,8.80
2023-03-21T00:55:03.814Z,9.30
2023-03-21T00:56:03.833Z,9.00
2023-03-21T00:57:03.786Z,9.40
2023-03-21T00:58:03.803Z,9.10
2023-03-21T00:59:03.787Z,9.10
2023-03-21T01:00:03.785Z,8.60
2023-03-21T01:01:03.780Z,8.80
2023-03-21T01:02:03.819Z,9.70
2023-03-21T01:03:14.210Z,8.70
2023-03-21T01:04:03.754Z,9.00
2023-03-21T01:05:03.737Z,9.40
2023-03-21T01:06:03.745Z,9.50
2023-03-21T01:07:03.691Z,9.60
2023-03-21T01:08:08.145Z,9.80
2023-03-21T01:09:03.675Z,8.50
2023-03-21T01:10:03.674Z,9.40
2023-03-21T01:11:03.658Z,9.60
2023-03-21T01:12:03.653Z,9.70
2023-03-21T01:13:03.628Z,9.00
2023-03-21T01:14:20.770Z,9.30
2023-03-21T01:15:03.600Z,8.90
2023-03-21T01:16:03.625Z,9.20
2023-03-21T01:17:03.598Z,9.00
2023-03-21T01:18:03.597Z,9.70
2023-03-21T01:19:07.044Z,8.90
2023-03-21T01:20:03.571Z,9.60
2023-03-21T01:21:03.526Z,9.60
2023-03-21T01:22:03.540Z,9.70
2023-03-21T01:23:03.537Z,9.10
2023-03-21T01:24:03.524Z,9.10
2023-03-21T01:25:21.041Z,9.30
2023-03-21T01:26:03.504Z,9.20
2023-03-21T01:27:03.503Z,9.20
2023-03-21T01:28:03.486Z,9.20
2023-03-21T01:29:03.483Z,9.90
2023-03-21T01:30:06.243Z,9.30
2023-03-21T01:31:03.431Z,9.30
2023-03-21T01:32:03.435Z,9.50
2023-03-21T01:33:03.401Z,9.40
2023-03-21T01:34:03.427Z,9.70
2023-03-21T01:35:03.420Z,14.10
2023-03-21T01:36:12.820Z,9.60
2023-03-21T01:37:03.410Z,10.00
2023-03-21T01:38:03.368Z,9.60
2023-03-21T01:39:03.336Z,10.10
2023-03-21T01:40:03.362Z,10.20
2023-03-21T01:41:08.609Z,9.60
2023-03-21T01:42:03.337Z,10.00
2023-03-21T01:43:03.321Z,9.70
2023-03-21T01:44:03.326Z,9.70
2023-03-21T01:45:03.289Z,9.70
2023-03-21T01:46:03.317Z,9.90
2023-03-21T01:47:11.023Z,9.90
2023-03-21T01:48:03.302Z,9.70
2023-03-21T01:49:03.250Z,9.50
2023-03-21T01:50:03.258Z,9.70
2023-03-21T01:51:03.213Z,10.70
2023-03-21T01:52:11.504Z,10.30
2023-03-21T01:53:03.232Z,10.30
2023-03-21T01:54:03.228Z,9.70
2023-03-21T01:55:03.167Z,10.20
2023-03-21T01:56:03.179Z,10.40
2023-03-21T01:57:03.151Z,10.00
2023-03-21T01:58:06.270Z,10.50
2023-03-21T01:59:03.147Z,9.90
2023-03-21T02:00:03.134Z,10.10
2023-03-21T02:01:03.237Z,10.20
2023-03-21T02:02:03.112Z,10.20
2023-03-21T02:03:13.624Z,9.80
2023-03-21T02:04:03.121Z,10.00
2023-03-21T02:05:03.072Z,10.30
2023-03-21T02:06:03.069Z,10.40
2023-03-21T02:07:03.045Z,10.70
2023-03-21T02:08:03.047Z,10.00
2023-03-21T02:09:03.019Z,10.40
2023-03-21T02:10:03.039Z,11.40
2023-03-21T02:11:03.028Z,10.00
2023-03-21T02:12:03.006Z,10.60
2023-03-21T02:13:02.976Z,13.00
2023-03-21T02:14:06.681Z,10.50
2023-03-21T02:15:02.963Z,10.20
2023-03-21T02:16:02.961Z,10.10
2023-03-21T02:17:02.947Z,10.70
2023-03-21T02:18:02.944Z,10.60
2023-03-21T02:19:02.913Z,10.50
2023-03-21T02:20:02.926Z,10.90
2023-03-21T02:21:02.887Z,10.10
2023-03-21T02:22:02.922Z,10.30
2023-03-21T02:23:02.883Z,10.60
2023-03-21T02:24:02.892Z,10.40
2023-03-21T02:25:08.269Z,10.30
2023-03-21T02:26:02.900Z,10.60
2023-03-21T02:27:04.325Z,10.30
2023-03-21T02:28:02.845Z,11.50
2023-03-21T02:29:02.839Z,10.50
2023-03-21T02:30:02.820Z,10.90
2023-03-21T02:31:02.820Z,10.80
2023-03-21T02:32:15.151Z,10.50
2023-03-21T02:33:02.774Z,10.30
2023-03-21T02:34:02.798Z,10.20
2023-03-21T02:35:02.772Z,10.00
2023-03-21T02:36:12.003Z,11.10
2023-03-21T02:37:02.727Z,10.30
2023-03-21T02:38:02.735Z,11.60
2023-03-21T02:39:02.731Z,9.90
2023-03-21T02:40:02.709Z,9.90
2023-03-21T02:41:05.375Z,10.50
2023-03-21T02:42:02.711Z,10.30
2023-03-21T02:43:03.043Z,10.20
2023-03-21T02:44:02.663Z,10.20
2023-03-21T02:45:02.641Z,15.60
2023-03-21T02:46:02.806Z,11.00
2023-03-21T02:47:06.376Z,10.60
2023-03-21T02:48:03.017Z,11.20
2023-03-21T02:49:02.619Z,11.00
2023-03-21T02:50:02.613Z,10.80
2023-03-21T02:51:02.591Z,10.90
2023-03-21T02:52:13.611Z,10.40
2023-03-21T02:53:02.600Z,10.40
2023-03-21T02:54:27.869Z,10.70
2023-03-21T02:55:02.557Z,10.30
2023-03-21T02:56:02.518Z,10.80
2023-03-21T02:57:02.533Z,11.10
2023-03-21T02:58:12.420Z,10.70
2023-03-21T02:59:02.564Z,11.00
2023-03-21T03:00:14.028Z,10.10
2023-03-21T03:01:02.496Z,11.10
2023-03-21T03:02:02.471Z,10.10
2023-03-21T03:03:10.093Z,9.80
2023-03-21T03:04:02.595Z,10.10
2023-03-21T03:05:06.428Z,10.20
2023-03-21T03:06:02.415Z,10.60
2023-03-21T03:07:02.427Z,10.40
2023-03-21T03:08:02.403Z,10.20
2023-03-21T03:09:03.237Z,10.10
2023-03-21T03:10:02.382Z,11.00
2023-03-21T03:11:02.403Z,10.40
2023-03-21T03:12:02.349Z,9.80
2023-03-21T03:13:02.359Z,10.30
2023-03-21T03:14:15.630Z,10.40
2023-03-21T03:15:04.179Z,10.80
2023-03-21T03:16:02.504Z,9.80
2023-03-21T03:17:02.338Z,10.20
2023-03-21T03:18:02.292Z,9.70
2023-03-21T03:19:02.298Z,10.70
2023-03-21T03:20:15.254Z,10.80
2023-03-21T03:21:02.280Z,10.10
2023-03-21T03:22:02.243Z,10.30
2023-03-21T03:23:02.275Z,10.20
2023-03-21T03:24:02.221Z,9.80
2023-03-21T03:25:12.571Z,9.90
2023-03-21T03:26:02.209Z,10.40
2023-03-21T03:27:02.214Z,10.40
2023-03-21T03:28:02.177Z,10.70
2023-03-21T03:29:02.236Z,10.00
2023-03-21T03:30:02.163Z,9.90
2023-03-21T03:31:09.367Z,10.00
2023-03-21T03:32:02.274Z,10.00
2023-03-21T03:33:02.147Z,10.40
2023-03-21T03:34:02.133Z,10.50
2023-03-21T03:35:02.147Z,10.10
2023-03-21T03:36:06.486Z,10.60
2023-03-21T03:37:02.136Z,9.90
2023-03-21T03:38:02.076Z,9.40
2023-03-21T03:39:02.085Z,10.00
2023-03-21T03:40:02.057Z,10.60
2023-03-21T03:41:02.087Z,9.40
2023-03-21T03:42:12.508Z,10.00
2023-03-21T03:43:02.046Z,10.10
2023-03-21T03:44:02.005Z,10.20
2023-03-21T03:45:02.020Z,9.80
2023-03-21T03:46:02.003Z,9.70
2023-03-21T03:47:02.016Z,10.60
2023-03-21T03:48:02.013Z,10.30
2023-03-21T03:49:01.976Z,11.00
2023-03-21T03:50:01.941Z,10.20
2023-03-21T03:51:01.959Z,10.50
2023-03-21T03:52:01.922Z,9.90
2023-03-21T03:53:07.118Z,10.00
2023-03-21T03:54:01.924Z,10.40
2023-03-21T03:55:01.920Z,9.90
2023-03-21T03:56:01.889Z,9.90
2023-03-21T03:57:01.898Z,9.60
2023-03-21T03:58:03.189Z,10.70
2023-03-21T03:59:01.900Z,10.30
2023-03-21T04:00:01.836Z,10.30
2023-03-21T04:01:01.874Z,10.60
2023-03-21T04:02:01.973Z,10.00
2023-03-21T04:03:01.988Z,10.80
2023-03-21T04:04:12.604Z,10.30
2023-03-21T04:05:01.840Z,10.30
2023-03-21T04:06:01.780Z,10.70
2023-03-21T04:07:01.793Z,10.30
2023-03-21T04:08:01.754Z,10.40
2023-03-21T04:09:07.874Z,11.60
2023-03-21T04:10:01.739Z,10.60
2023-03-21T04:11:01.763Z,10.40
2023-03-21T04:12:01.718Z,11.30
2023-03-21T04:13:01.732Z,10.40
2023-03-21T04:14:01.718Z,10.80
2023-03-21T04:15:10.124Z,11.50
2023-03-21T04:16:01.742Z,10.90
2023-03-21T04:17:01.735Z,10.20
2023-03-21T04:18:01.646Z,11.00
2023-03-21T04:19:01.661Z,11.50
2023-03-21T04:20:11.335Z,11.50
2023-03-21T04:21:01.654Z,11.40
2023-03-21T04:22:01.627Z,11.10
2023-03-21T04:23:01.656Z,11.30
2023-03-21T04:24:01.595Z,10.80
2023-03-21T04:25:01.612Z,11.90
2023-03-21T04:26:01.563Z,10.90
2023-03-21T04:27:01.605Z,12.00
2023-03-21T04:28:01.556Z,12.10
2023-03-21T04:29:01.570Z,11.60
2023-03-21T04:30:01.536Z,10.80
2023-03-21T04:31:08.783Z,12.10
2023-03-21T04:32:01.585Z,12.30
2023-03-21T04:33:01.517Z,12.30
2023-03-21T04:34:01.488Z,12.60
2023-03-21T04:35:01.512Z,12.80
2023-03-21T04:36:01.480Z,13.00
2023-03-21T04:37:01.471Z,12.20
2023-03-21T04:38:01.436Z,12.60
2023-03-21T04:39:01.476Z,13.30
2023-03-21T04:40:01.426Z,13.20
2023-03-21T04:41:01.456Z,12.90
2023-03-21T04:42:01.397Z,12.60
2023-03-21T04:43:01.429Z,13.40
2023-03-21T04:44:01.372Z,13.80
2023-03-21T04:45:01.394Z,13.50
2023-03-21T04:46:01.404Z,13.30
2023-03-21T04:47:01.384Z,14.50
2023-03-21T04:48:01.350Z,14.40
2023-03-21T04:49:01.351Z,13.40
2023-03-21T04:50:01.320Z,13.60
2023-03-21T04:51:01.326Z,14.70
2023-03-21T04:52:01.293Z,14.00
2023-03-21T04:53:01.343Z,14.00
2023-03-21T04:54:01.262Z,13.40
2023-03-21T04:55:01.293Z,14.00
2023-03-21T04:56:01.270Z,14.40
2023-03-21T04:57:01.241Z,14.30
2023-03-21T04:58:01.250Z,13.90
2023-03-21T04:59:01.234Z,13.90
2023-03-21T05:00:01.226Z,14.20
2023-03-21T05:01:01.240Z,13.90
2023-03-21T05:02:01.196Z,14.00
2023-03-21T05:03:01.165Z,13.60
2023-03-21T05:04:01.219Z,14.00
2023-03-21T05:05:01.171Z,13.60
2023-03-21T05:06:01.156Z,13.90
2023-03-21T05:07:01.124Z,14.30
2023-03-21T05:08:01.144Z,13.80
2023-03-21T05:09:01.101Z,14.30
2023-03-21T05:10:02.595Z,14.50
2023-03-21T05:11:01.110Z,14.40
2023-03-21T05:12:01.096Z,14.20
2023-03-21T05:13:01.074Z,14.40
2023-03-21T05:14:01.069Z,14.80
2023-03-21T05:15:01.047Z,14.60
2023-03-21T05:16:01.054Z,14.10
2023-03-21T05:17:01.127Z,14.60
2023-03-21T05:18:01.066Z,14.70
2023-03-21T05:19:01.004Z,15.50
2023-03-21T05:20:01.014Z,15.00
2023-03-21T05:21:00.973Z,15.10
2023-03-21T05:22:00.986Z,15.40
2023-03-21T05:23:01.047Z,14.60
2023-03-21T05:24:00.999Z,15.10
2023-03-21T05:25:00.928Z,14.70
2023-03-21T05:26:00.970Z,14.70
2023-03-21T05:27:01.669Z,15.20
2023-03-21T05:28:00.940Z,14.80
2023-03-21T05:29:00.903Z,14.90
2023-03-21T05:30:00.923Z,15.20
2023-03-21T05:31:00.913Z,15.10
2023-03-21T05:32:00.882Z,15.30
2023-03-21T05:33:00.866Z,15.40
2023-03-21T05:34:00.862Z,14.50
2023-03-21T05:35:00.853Z,14.70
2023-03-21T05:36:00.869Z,15.30
2023-03-21T05:37:00.803Z,15.00
2023-03-21T05:38:00.824Z,17.60
2023-03-21T05:39:00.780Z,15.20
2023-03-21T05:40:00.806Z,15.40
2023-03-21T05:41:00.785Z,15.10
2023-03-21T05:42:00.778Z,14.80
2023-03-21T05:43:00.742Z,14.40
2023-03-21T05:44:00.748Z,14.80
2023-03-21T05:45:00.728Z,14.60
2023-03-21T05:46:00.782Z,15.30
2023-03-21T05:47:00.716Z,14.30
2023-03-21T05:48:00.823Z,14.80
2023-03-21T05:49:00.672Z,13.70
2023-03-21T05:50:00.691Z,13.80
2023-03-21T05:51:00.653Z,14.00
2023-03-21T05:52:00.674Z,13.90
2023-03-21T05:53:00.670Z,13.90
2023-03-21T05:54:00.651Z,13.80
2023-03-21T05:55:00.619Z,13.70
2023-03-21T05:56:00.641Z,13.60
2023-03-21T05:57:00.590Z,13.40
2023-03-21T05:58:00.608Z,14.30
2023-03-21T05:59:00.584Z,14.30
2023-03-21T06:00:00.581Z,13.80
2023-03-21T06:01:00.545Z,13.40
2023-03-21T06:02:00.565Z,13.50
2023-03-21T06:03:00.589Z,12.90
2023-03-21T06:04:00.611Z,13.50
2023-03-21T06:05:00.528Z,13.60
2023-03-21T06:06:00.530Z,13.40
2023-03-21T06:07:00.483Z,13.60
2023-03-21T06:08:00.501Z,13.90
2023-03-21T06:09:00.516Z,13.30
2023-03-21T06:10:00.475Z,13.90
2023-03-21T06:11:00.456Z,14.70
2023-03-21T06:12:00.467Z,13.20
2023-03-21T06:13:00.420Z,13.30
2023-03-21T06:14:00.441Z,14.20
2023-03-21T06:15:00.403Z,15.00
2023-03-21T06:16:00.516Z,14.80
2023-03-21T06:17:00.402Z,14.70
2023-03-21T06:18:00.393Z,13.90
2023-03-21T06:19:00.377Z,13.80
2023-03-21T06:20:00.376Z,13.70
2023-03-21T06:21:00.333Z,13.40
2023-03-21T06:22:00.350Z,13.80
2023-03-21T06:23:00.333Z,13.80
2023-03-21T06:24:00.325Z,14.00
2023-03-21T06:25:00.294Z,13.30
2023-03-21T06:26:00.309Z,15.50
2023-03-21T06:27:02.366Z,13.80
2023-03-21T06:28:00.289Z,13.00
2023-03-21T06:29:00.275Z,13.80
2023-03-21T06:30:00.267Z,13.80
2023-03-21T06:31:00.286Z,12.70
2023-03-21T06:32:00.242Z,12.90
2023-03-21T06:33:00.204Z,13.60
2023-03-21T06:34:00.222Z,13.30
2023-03-21T06:35:00.213Z,13.50
2023-03-21T06:36:00.271Z,12.80
2023-03-21T06:37:00.166Z,12.40
2023-03-21T06:38:00.184Z,12.80
2023-03-21T06:39:00.145Z,12.40
2023-03-21T06:40:00.162Z,12.80
2023-03-21T06:41:00.152Z,13.30
2023-03-21T06:42:00.191Z,12.70
2023-03-21T06:43:00.104Z,12.30
2023-03-21T06:44:00.130Z,12.70
2023-03-21T06:45:00.087Z,12.60
2023-03-21T06:46:00.110Z,12.70
2023-03-21T06:47:00.147Z,12.20
2023-03-21T06:48:00.163Z,13.30
2023-03-21T06:49:00.038Z,12.70
2023-03-21T06:50:00.062Z,12.50
2023-03-21T06:51:00.016Z,12.90
2023-03-21T06:52:00.043Z,12.40
2023-03-21T06:53:00.005Z,12.40
2023-03-21T06:54:00.006Z,11.90
2023-03-21T06:54:59.970Z,11.00
2023-03-21T06:55:59.983Z,12.10
2023-03-21T06:56:59.954Z,11.10
2023-03-21T06:57:59.964Z,11.60
2023-03-21T06:58:59.961Z,11.10
2023-03-21T06:59:59.947Z,12.20
2023-03-21T07:01:00.012Z,12.10
2023-03-21T07:01:59.919Z,11.70
2023-03-21T07:02:59.944Z,12.40
2023-03-21T07:03:59.901Z,12.20
2023-03-21T07:04:59.891Z,11.50
2023-03-21T07:05:59.885Z,12.20
2023-03-21T07:06:59.873Z,12.20
2023-03-21T07:07:59.837Z,11.50
2023-03-21T07:08:59.848Z,12.10
2023-03-21T07:09:59.828Z,12.30
2023-03-21T07:10:59.845Z,13.10
2023-03-21T07:11:59.792Z,13.50
2023-03-21T07:12:59.823Z,13.00
2023-03-21T07:13:59.770Z,12.70
2023-03-21T07:14:59.804Z,12.60
2023-03-21T07:15:59.842Z,14.00
2023-03-21T07:16:59.775Z,13.80
2023-03-21T07:17:59.728Z,13.00
2023-03-21T07:18:59.744Z,12.40
2023-03-21T07:19:59.709Z,12.20
2023-03-21T07:20:59.722Z,13.20
2023-03-21T07:21:59.686Z,13.30
2023-03-21T07:22:59.714Z,13.30
2023-03-21T07:23:59.670Z,13.60
2023-03-21T07:25:05.120Z,13.90
2023-03-21T07:25:59.698Z,13.70
2023-03-21T07:26:59.654Z,15.60
2023-03-21T07:27:59.622Z,15.40
2023-03-21T07:28:59.667Z,15.20
2023-03-21T07:29:59.602Z,17.30
2023-03-21T07:30:59.626Z,19.90
2023-03-21T07:31:59.629Z,19.20
2023-03-21T07:32:59.596Z,20.00
2023-03-21T07:33:59.564Z,18.20
2023-03-21T07:35:01.645Z,22.50
2023-03-21T07:35:59.544Z,23.90
2023-03-21T07:36:59.548Z,20.60
2023-03-21T07:37:59.515Z,26.10
2023-03-21T07:38:59.530Z,29.60
2023-03-21T07:39:59.498Z,27.20
2023-03-21T07:40:59.533Z,28.80
2023-03-21T07:41:59.469Z,21.50
2023-03-21T07:42:59.483Z,26.60
2023-03-21T07:43:59.474Z,22.30
2023-03-21T07:44:59.483Z,27.90
2023-03-21T07:45:59.495Z,34.50
2023-03-21T07:46:59.470Z,33.40
2023-03-21T07:47:59.466Z,31.80
2023-03-21T07:48:59.424Z,29.90
2023-03-21T07:49:59.387Z,33.40
2023-03-21T07:50:59.401Z,29.30
2023-03-21T07:51:59.364Z,31.00
2023-03-21T07:52:59.400Z,32.80
2023-03-21T07:53:59.351Z,36.90
2023-03-21T07:54:59.357Z,32.10
2023-03-21T07:55:59.334Z,33.50
2023-03-21T07:56:59.337Z,32.10
2023-03-21T07:57:59.308Z,34.20
2023-03-21T07:58:59.351Z,32.90
2023-03-21T07:59:59.277Z,33.30
2023-03-21T08:00:59.290Z,28.00
2023-03-21T08:01:59.309Z,30.40
2023-03-21T08:02:59.311Z,30.20
2023-03-21T08:03:59.240Z,28.70
2023-03-21T08:04:59.277Z,29.20
2023-03-21T08:05:59.219Z,30.00
2023-03-21T08:06:59.228Z,23.90
2023-03-21T08:07:59.192Z,26.90
2023-03-21T08:08:59.205Z,26.60
2023-03-21T08:09:59.173Z,20.60
2023-03-21T08:10:59.209Z,25.20
2023-03-21T08:11:59.151Z,27.00
2023-03-21T08:12:59.181Z,30.90
2023-03-21T08:13:59.130Z,29.50
2023-03-21T08:15:01.139Z,28.60
2023-03-21T08:15:59.117Z,26.10
2023-03-21T08:16:59.198Z,26.10
2023-03-21T08:17:59.091Z,25.60
2023-03-21T08:18:59.102Z,25.50
2023-03-21T08:19:59.067Z,26.10
2023-03-21T08:20:59.084Z,23.90
2023-03-21T08:21:59.066Z,24.90
2023-03-21T08:22:59.083Z,27.90
2023-03-21T08:23:59.025Z,28.20
2023-03-21T08:24:59.034Z,26.80
2023-03-21T08:25:59.007Z,23.10
2023-03-21T08:26:59.016Z,23.10
2023-03-21T08:27:58.979Z,20.90
2023-03-21T08:28:59.018Z,24.10
2023-03-21T08:29:58.961Z,22.80
2023-03-21T08:30:58.985Z,18.90
2023-03-21T08:31:58.945Z,23.20
2023-03-21T08:33:01.197Z,21.70
2023-03-21T08:33:58.925Z,25.10
2023-03-21T08:34:59.042Z,18.70
2023-03-21T08:35:58.938Z,20.80
2023-03-21T08:36:58.913Z,21.60
2023-03-21T08:37:58.877Z,20.40
2023-03-21T08:38:58.904Z,22.10
2023-03-21T08:39:58.915Z,20.20
2023-03-21T08:41:00.285Z,20.70
2023-03-21T08:41:58.837Z,22.50
2023-03-21T08:42:58.845Z,22.50
2023-03-21T08:43:58.815Z,19.80
2023-03-21T08:44:58.825Z,23.60
2023-03-21T08:45:58.835Z,26.70
2023-03-21T08:46:58.820Z,20.70
2023-03-21T08:47:58.789Z,23.40
2023-03-21T08:48:58.784Z,24.70
2023-03-21T08:49:59.233Z,27.00
2023-03-21T08:50:58.759Z,26.70
2023-03-21T08:51:58.725Z,25.50
2023-03-21T08:52:58.771Z,24.60
2023-03-21T08:53:58.701Z,28.30
2023-03-21T08:54:58.717Z,26.90
2023-03-21T08:55:58.685Z,29.90
2023-03-21T08:56:58.709Z,27.50
2023-03-21T08:57:58.680Z,29.60
2023-03-21T08:58:58.699Z,26.90
2023-03-21T08:59:58.643Z,26.30
2023-03-21T09:00:58.654Z,23.00
2023-03-21T09:01:58.721Z,29.80
2023-03-21T09:02:58.635Z,29.60
2023-03-21T09:03:58.611Z,25.60
2023-03-21T09:04:58.773Z,19.20
2023-03-21T09:05:58.586Z,26.00
2023-03-21T09:06:58.588Z,25.60
2023-03-21T09:07:58.568Z,28.30
2023-03-21T09:08:58.564Z,24.90
2023-03-21T09:10:19.235Z,21.70
2023-03-21T09:10:58.587Z,18.00
2023-03-21T09:11:58.552Z,21.00
2023-03-21T09:12:58.531Z,19.20
2023-03-21T09:13:58.498Z,25.50
2023-03-21T09:14:58.510Z,27.80
2023-03-21T09:15:58.507Z,29.30
2023-03-21T09:16:58.503Z,26.00
2023-03-21T09:17:58.469Z,23.90
2023-03-21T09:18:58.458Z,25.10
2023-03-21T09:19:58.425Z,31.20
2023-03-21T09:20:58.447Z,30.70
2023-03-21T09:21:58.415Z,27.80
2023-03-21T09:22:58.432Z,30.10
2023-03-21T09:23:58.427Z,33.20
2023-03-21T09:24:58.392Z,31.70
2023-03-21T09:25:58.362Z,25.60
2023-03-21T09:26:58.377Z,31.00
2023-03-21T09:27:58.339Z,24.90
2023-03-21T09:28:58.398Z,23.50
2023-03-21T09:29:58.318Z,24.00
2023-03-21T09:30:58.378Z,27.70
2023-03-21T09:31:58.295Z,25.50
2023-03-21T09:32:58.307Z,22.90
2023-03-21T09:33:58.302Z,24.40
2023-03-21T09:34:58.311Z,18.20
2023-03-21T09:35:58.273Z,20.60
2023-03-21T09:36:58.280Z,23.10
2023-03-21T09:37:58.236Z,23.00
2023-03-21T09:38:58.253Z,25.70
2023-03-21T09:39:58.214Z,21.80
2023-03-21T09:40:58.284Z,22.90
2023-03-21T09:41:58.187Z,23.00
2023-03-21T09:42:58.242Z,26.30
2023-03-21T09:43:58.193Z,22.20
2023-03-21T09:44:58.194Z,20.70
2023-03-21T09:45:58.385Z,25.80
2023-03-21T09:46:58.230Z,27.20
2023-03-21T09:47:58.179Z,26.50
2023-03-21T09:48:58.146Z,27.80
2023-03-21T09:50:07.600Z,27.20
2023-03-21T09:50:58.123Z,24.60
2023-03-21T09:51:58.085Z,22.70
2023-03-21T09:52:58.127Z,20.10
2023-03-21T09:53:58.064Z,19.70
2023-03-21T09:54:58.071Z,17.80
2023-03-21T09:55:58.034Z,22.10
2023-03-21T09:56:58.055Z,26.00
2023-03-21T09:57:58.032Z,22.60
2023-03-21T09:58:58.047Z,22.90
2023-03-21T09:59:57.997Z,25.10
2023-03-21T10:00:58.129Z,20.90
2023-03-21T10:01:58.215Z,25.50
2023-03-21T10:02:57.985Z,23.60
2023-03-21T10:03:57.969Z,26.60
2023-03-21T10:04:57.982Z,24.60
2023-03-21T10:05:57.944Z,20.00
2023-03-21T10:06:57.983Z,25.00
2023-03-21T10:07:57.923Z,23.70
2023-03-21T10:08:57.929Z,21.70
2023-03-21T10:09:57.894Z,22.90
2023-03-21T10:10:57.913Z,24.40
2023-03-21T10:11:57.872Z,25.70
2023-03-21T10:12:57.906Z,19.30
2023-03-21T10:13:57.841Z,24.10
2023-03-21T10:14:58.154Z,23.80
2023-03-21T10:15:57.914Z,24.80
2023-03-21T10:16:57.873Z,23.80
2023-03-21T10:17:57.797Z,31.10
2023-03-21T10:18:57.851Z,30.70
2023-03-21T10:19:57.779Z,27.40
2023-03-21T10:20:57.793Z,23.40
2023-03-21T10:22:03.023Z,21.80
2023-03-21T10:22:57.807Z,25.10
2023-03-21T10:23:57.738Z,26.30
2023-03-21T10:24:57.745Z,28.00
2023-03-21T10:25:57.744Z,27.00
2023-03-21T10:26:57.727Z,30.00
2023-03-21T10:27:57.696Z,30.40
2023-03-21T10:28:57.735Z,22.10
2023-03-21T10:29:57.681Z,32.60
2023-03-21T10:30:57.687Z,35.70
2023-03-21T10:31:57.794Z,31.80
2023-03-21T10:32:59.591Z,30.80
2023-03-21T10:33:57.634Z,22.20
2023-03-21T10:34:57.769Z,26.20
2023-03-21T10:35:57.628Z,24.00
2023-03-21T10:36:57.618Z,29.40
2023-03-21T10:37:57.579Z,27.70
2023-03-21T10:38:57.596Z,28.40
2023-03-21T10:39:57.566Z,31.10
2023-03-21T10:40:57.617Z,29.20
2023-03-21T10:41:57.578Z,21.50
2023-03-21T10:42:57.552Z,27.20
2023-03-21T10:43:57.519Z,23.90
2023-03-21T10:44:57.647Z,30.60
2023-03-21T10:45:57.666Z,27.30
2023-03-21T10:46:57.751Z,29.40
2023-03-21T10:47:57.767Z,28.10
2023-03-21T10:48:57.586Z,31.90
2023-03-21T10:50:07.355Z,28.90
2023-03-21T10:50:57.528Z,32.40
2023-03-21T10:51:57.431Z,33.60
2023-03-21T10:52:57.472Z,32.90
2023-03-21T10:53:57.524Z,28.90
2023-03-21T10:54:57.436Z,28.90
2023-03-21T10:55:57.389Z,26.50
2023-03-21T10:56:57.407Z,31.00
2023-03-21T10:57:57.381Z,22.30
2023-03-21T10:58:57.398Z,25.60
2023-03-21T10:59:57.346Z,27.30
2023-03-21T11:00:57.386Z,30.80
2023-03-21T11:01:57.414Z,32.60
2023-03-21T11:02:57.359Z,30.10
2023-03-21T11:03:57.319Z,33.40
2023-03-21T11:04:57.352Z,29.40
2023-03-21T11:05:57.293Z,28.00
2023-03-21T11:06:57.353Z,26.50
2023-03-21T11:07:57.279Z,21.50
2023-03-21T11:08:57.272Z,23.70
2023-03-21T11:09:57.246Z,25.40
2023-03-21T11:10:57.274Z,24.10
2023-03-21T11:11:57.221Z,22.40
2023-03-21T11:12:57.244Z,24.00
2023-03-21T11:13:57.246Z,25.00
2023-03-21T11:14:57.230Z,25.50
2023-03-21T11:15:57.178Z,24.00
2023-03-21T11:16:57.226Z,18.50
2023-03-21T11:17:57.176Z,19.80
2023-03-21T11:18:57.173Z,25.10
2023-03-21T11:19:57.216Z,22.00
2023-03-21T11:20:57.164Z,23.40
2023-03-21T11:21:57.115Z,23.10
2023-03-21T11:22:57.154Z,21.90
2023-03-21T11:23:57.332Z,22.00
2023-03-21T11:24:57.082Z,25.30
2023-03-21T11:25:57.114Z,22.20
2023-03-21T11:26:57.078Z,20.20
2023-03-21T11:27:57.117Z,25.40
2023-03-21T11:28:57.103Z,26.10
2023-03-21T11:29:57.055Z,25.50
2023-03-21T11:30:57.072Z,22.70
2023-03-21T11:31:57.038Z,22.40
2023-03-21T11:32:57.004Z,22.70
2023-03-21T11:33:57.184Z,22.00
2023-03-21T11:34:57.006Z,25.00
2023-03-21T11:35:57.123Z,20.00
2023-03-21T11:36:56.958Z,19.10
2023-03-21T11:37:57.086Z,20.30
2023-03-21T11:38:56.936Z,15.30
2023-03-21T11:39:57.058Z,15.70
2023-03-21T11:40:56.926Z,20.10
2023-03-21T11:41:56.929Z,19.70
2023-03-21T11:42:56.946Z,21.40
2023-03-21T11:43:56.903Z,14.90
2023-03-21T11:44:56.883Z,18.20
2023-03-21T11:45:56.946Z,18.80
2023-03-21T11:46:56.873Z,17.70
2023-03-21T11:47:56.945Z,17.50
2023-03-21T11:48:56.835Z,14.50
2023-03-21T11:50:04.686Z,16.30
2023-03-21T11:50:56.810Z,13.80
2023-03-21T11:51:56.827Z,14.00
2023-03-21T11:52:56.807Z,15.60
2023-03-21T11:53:56.822Z,13.80
2023-03-21T11:54:56.765Z,15.40
2023-03-21T11:55:56.889Z,17.30
2023-03-21T11:56:56.758Z,17.60
2023-03-21T11:58:00.174Z,15.30
2023-03-21T11:58:58.795Z,18.50
2023-03-21T11:59:56.738Z,16.70
2023-03-21T12:00:56.700Z,16.30
2023-03-21T12:01:56.708Z,13.30
2023-03-21T12:02:56.735Z,15.60
2023-03-21T12:03:56.727Z,15.80
2023-03-21T12:04:56.697Z,17.70
2023-03-21T12:05:56.675Z,20.30
2023-03-21T12:06:56.635Z,16.60
2023-03-21T12:07:56.642Z,18.80
2023-03-21T12:08:56.623Z,18.40
2023-03-21T12:09:56.621Z,16.90
2023-03-21T12:10:56.613Z,16.90
2023-03-21T12:11:56.608Z,15.50
2023-03-21T12:12:56.567Z,16.20
2023-03-21T12:13:56.584Z,17.80
2023-03-21T12:14:56.547Z,21.60
2023-03-21T12:15:56.625Z,18.40
2023-03-21T12:16:56.537Z,19.40
2023-03-21T12:17:56.540Z,20.00
2023-03-21T12:18:56.513Z,16.90
2023-03-21T12:19:56.527Z,18.90
2023-03-21T12:20:56.477Z,20.80
2023-03-21T12:21:56.491Z,20.40
2023-03-21T12:22:56.523Z,16.00
2023-03-21T12:23:56.481Z,19.60
2023-03-21T12:24:56.441Z,17.30
2023-03-21T12:25:56.591Z,18.70
2023-03-21T12:26:58.103Z,15.40
2023-03-21T12:27:56.451Z,19.40
2023-03-21T12:28:56.416Z,21.60
2023-03-21T12:29:56.405Z,18.30
2023-03-21T12:30:56.446Z,15.50
2023-03-21T12:31:56.390Z,17.60
2023-03-21T12:32:56.352Z,15.70
2023-03-21T12:33:56.373Z,13.30
2023-03-21T12:34:56.361Z,13.30
2023-03-21T12:35:56.364Z,12.00
2023-03-21T12:36:56.301Z,11.00
2023-03-21T12:37:57.922Z,12.40
2023-03-21T12:38:56.286Z,12.80
2023-03-21T12:39:56.304Z,11.00
2023-03-21T12:40:56.274Z,12.30
2023-03-21T12:41:56.281Z,10.10
2023-03-21T12:42:56.232Z,9.60
2023-03-21T12:43:56.257Z,15.10
2023-03-21T12:44:56.247Z,11.70
2023-03-21T12:45:56.234Z,10.00
2023-03-21T12:46:56.298Z,9.30
2023-03-21T12:47:56.436Z,9.80
2023-03-21T12:48:56.169Z,9.10
2023-03-21T12:49:56.198Z,8.50
2023-03-21T12:50:56.170Z,9.20
2023-03-21T12:51:56.180Z,8.70
2023-03-21T12:52:56.151Z,7.60
2023-03-21T12:53:56.161Z,8.00
2023-03-21T12:54:56.107Z,9.10
2023-03-21T12:55:56.137Z,9.30
2023-03-21T12:56:56.118Z,7.90